sensor_id;sensor_type;location;lat;lon;timestamp;P1;durP1;ratioP1;P2;durP2;ratioP2
78416;SDS011;67715;46.170;6.140;2023-08-31T00:01:38;4.07;;;2.20;;
78416;SDS011;67715;46.170;6.140;2023-08-31T00:04:03;3.90;;;1.85;;
78416;SDS011;67715;46.170;6.140;2023-08-31T00:06:29;4.28;;;2.22;;
78416;SDS011;67715;46.170;6.140;2023-08-31T00:08:55;3.05;;;1.70;;
78416;SDS011;67715;46.170;6.140;2023-08-31T00:11:20;5.07;;;2.07;;
78416;SDS011;67715;46.170;6.140;2023-08-31T00:13:46;4.57;;;2.10;;
78416;SDS011;67715;46.170;6.140;2023-08-31T00:16:11;3.47;;;2.07;;
78416;SDS011;67715;46.170;6.140;2023-08-31T00:18:37;4.85;;;2.13;;
78416;SDS011;67715;46.170;6.140;2023-08-31T00:21:03;4.30;;;2.25;;
78416;SDS011;67715;46.170;6.140;2023-08-31T00:23:29;4.05;;;2.53;;
78416;SDS011;67715;46.170;6.140;2023-08-31T00:25:54;4.60;;;2.80;;
78416;SDS011;67715;46.170;6.140;2023-08-31T00:28:22;5.38;;;2.35;;
78416;SDS011;67715;46.170;6.140;2023-08-31T00:30:47;3.40;;;2.03;;
78416;SDS011;67715;46.170;6.140;2023-08-31T00:33:13;2.42;;;1.92;;
78416;SDS011;67715;46.170;6.140;2023-08-31T00:35:39;3.13;;;2.15;;
78416;SDS011;67715;46.170;6.140;2023-08-31T00:38:08;2.80;;;2.05;;
78416;SDS011;67715;46.170;6.140;2023-08-31T00:40:37;2.58;;;1.88;;
78416;SDS011;67715;46.170;6.140;2023-08-31T00:45:32;3.13;;;1.90;;
78416;SDS011;67715;46.170;6.140;2023-08-31T00:47:57;3.88;;;2.45;;
78416;SDS011;67715;46.170;6.140;2023-08-31T00:50:23;3.45;;;2.38;;
78416;SDS011;67715;46.170;6.140;2023-08-31T00:52:48;2.17;;;1.70;;
78416;SDS011;67715;46.170;6.140;2023-08-31T00:55:14;3.47;;;2.27;;
78416;SDS011;67715;46.170;6.140;2023-08-31T00:57:42;3.97;;;2.03;;
78416;SDS011;67715;46.170;6.140;2023-08-31T01:00:08;3.50;;;1.90;;
78416;SDS011;67715;46.170;6.140;2023-08-31T01:02:36;3.25;;;2.15;;
78416;SDS011;67715;46.170;6.140;2023-08-31T01:05:06;3.00;;;2.33;;
78416;SDS011;67715;46.170;6.140;2023-08-31T01:07:48;3.08;;;1.90;;
78416;SDS011;67715;46.170;6.140;2023-08-31T01:10:25;3.25;;;2.13;;
78416;SDS011;67715;46.170;6.140;2023-08-31T01:13:12;3.58;;;2.20;;
78416;SDS011;67715;46.170;6.140;2023-08-31T01:15:44;4.10;;;2.17;;
78416;SDS011;67715;46.170;6.140;2023-08-31T01:18:11;3.45;;;2.05;;
78416;SDS011;67715;46.170;6.140;2023-08-31T01:26:21;2.92;;;2.30;;
78416;SDS011;67715;46.170;6.140;2023-08-31T01:28:47;2.90;;;1.90;;
78416;SDS011;67715;46.170;6.140;2023-08-31T01:31:13;3.42;;;2.03;;
78416;SDS011;67715;46.170;6.140;2023-08-31T01:33:40;2.47;;;1.77;;
78416;SDS011;67715;46.170;6.140;2023-08-31T01:36:08;3.60;;;2.60;;
78416;SDS011;67715;46.170;6.140;2023-08-31T01:38:37;5.93;;;2.42;;
78416;SDS011;67715;46.170;6.140;2023-08-31T01:41:06;3.05;;;2.08;;
78416;SDS011;67715;46.170;6.140;2023-08-31T01:43:33;3.13;;;2.33;;
78416;SDS011;67715;46.170;6.140;2023-08-31T01:45:58;3.88;;;2.15;;
78416;SDS011;67715;46.170;6.140;2023-08-31T01:48:24;4.28;;;2.25;;
78416;SDS011;67715;46.170;6.140;2023-08-31T01:50:50;4.20;;;2.67;;
78416;SDS011;67715;46.170;6.140;2023-08-31T01:53:15;5.77;;;2.73;;
78416;SDS011;67715;46.170;6.140;2023-08-31T01:55:40;3.57;;;2.83;;
78416;SDS011;67715;46.170;6.140;2023-08-31T01:58:06;3.57;;;2.57;;
78416;SDS011;67715;46.170;6.140;2023-08-31T02:00:31;3.40;;;2.47;;
78416;SDS011;67715;46.170;6.140;2023-08-31T02:02:59;3.75;;;2.75;;
78416;SDS011;67715;46.170;6.140;2023-08-31T02:05:25;3.50;;;2.70;;
78416;SDS011;67715;46.170;6.140;2023-08-31T02:07:51;4.47;;;2.43;;
78416;SDS011;67715;46.170;6.140;2023-08-31T02:10:16;7.67;;;2.87;;
78416;SDS011;67715;46.170;6.140;2023-08-31T02:12:41;2.87;;;2.30;;
78416;SDS011;67715;46.170;6.140;2023-08-31T02:15:06;3.43;;;2.63;;
78416;SDS011;67715;46.170;6.140;2023-08-31T02:17:33;3.92;;;2.67;;
78416;SDS011;67715;46.170;6.140;2023-08-31T02:19:59;3.78;;;2.42;;
78416;SDS011;67715;46.170;6.140;2023-08-31T02:22:26;3.95;;;2.80;;
78416;SDS011;67715;46.170;6.140;2023-08-31T02:24:51;3.75;;;2.92;;
78416;SDS011;67715;46.170;6.140;2023-08-31T02:27:17;3.28;;;2.22;;
78416;SDS011;67715;46.170;6.140;2023-08-31T02:29:42;5.05;;;3.20;;
78416;SDS011;67715;46.170;6.140;2023-08-31T02:32:08;4.17;;;2.53;;
78416;SDS011;67715;46.170;6.140;2023-08-31T02:34:34;4.07;;;2.28;;
78416;SDS011;67715;46.170;6.140;2023-08-31T02:36:59;3.93;;;2.50;;
78416;SDS011;67715;46.170;6.140;2023-08-31T02:39:24;3.75;;;2.55;;
78416;SDS011;67715;46.170;6.140;2023-08-31T02:41:50;9.23;;;2.67;;
78416;SDS011;67715;46.170;6.140;2023-08-31T02:44:15;2.90;;;2.20;;
78416;SDS011;67715;46.170;6.140;2023-08-31T02:46:40;3.40;;;2.47;;
78416;SDS011;67715;46.170;6.140;2023-08-31T02:49:05;4.13;;;2.57;;
78416;SDS011;67715;46.170;6.140;2023-08-31T02:51:31;2.43;;;2.17;;
78416;SDS011;67715;46.170;6.140;2023-08-31T02:53:56;3.90;;;2.60;;
78416;SDS011;67715;46.170;6.140;2023-08-31T02:56:21;4.07;;;2.93;;
78416;SDS011;67715;46.170;6.140;2023-08-31T02:58:47;3.93;;;2.83;;
78416;SDS011;67715;46.170;6.140;2023-08-31T03:01:13;3.27;;;2.60;;
78416;SDS011;67715;46.170;6.140;2023-08-31T03:03:42;2.70;;;2.38;;
78416;SDS011;67715;46.170;6.140;2023-08-31T03:06:08;3.80;;;2.70;;
78416;SDS011;67715;46.170;6.140;2023-08-31T03:08:34;4.20;;;2.95;;
78416;SDS011;67715;46.170;6.140;2023-08-31T03:11:03;7.40;;;2.83;;
78416;SDS011;67715;46.170;6.140;2023-08-31T03:13:29;4.55;;;2.53;;
78416;SDS011;67715;46.170;6.140;2023-08-31T03:15:55;4.47;;;2.83;;
78416;SDS011;67715;46.170;6.140;2023-08-31T03:18:21;3.30;;;2.33;;
78416;SDS011;67715;46.170;6.140;2023-08-31T03:20:47;4.00;;;2.83;;
78416;SDS011;67715;46.170;6.140;2023-08-31T03:23:12;4.13;;;2.78;;
78416;SDS011;67715;46.170;6.140;2023-08-31T03:25:38;5.85;;;3.10;;
78416;SDS011;67715;46.170;6.140;2023-08-31T03:28:03;4.13;;;2.83;;
78416;SDS011;67715;46.170;6.140;2023-08-31T03:30:28;5.28;;;2.80;;
78416;SDS011;67715;46.170;6.140;2023-08-31T03:32:54;5.28;;;2.65;;
78416;SDS011;67715;46.170;6.140;2023-08-31T03:35:19;3.67;;;2.90;;
78416;SDS011;67715;46.170;6.140;2023-08-31T03:37:47;3.22;;;2.33;;
78416;SDS011;67715;46.170;6.140;2023-08-31T03:40:13;3.20;;;2.58;;
78416;SDS011;67715;46.170;6.140;2023-08-31T03:42:38;4.03;;;2.80;;
78416;SDS011;67715;46.170;6.140;2023-08-31T03:45:04;3.87;;;2.57;;
78416;SDS011;67715;46.170;6.140;2023-08-31T03:47:29;3.90;;;2.38;;
78416;SDS011;67715;46.170;6.140;2023-08-31T03:49:55;4.68;;;2.78;;
78416;SDS011;67715;46.170;6.140;2023-08-31T03:52:21;4.95;;;2.65;;
78416;SDS011;67715;46.170;6.140;2023-08-31T03:54:46;3.50;;;2.33;;
78416;SDS011;67715;46.170;6.140;2023-08-31T03:57:11;3.53;;;2.77;;
78416;SDS011;67715;46.170;6.140;2023-08-31T03:59:37;5.37;;;2.87;;
78416;SDS011;67715;46.170;6.140;2023-08-31T04:02:02;3.87;;;2.60;;
78416;SDS011;67715;46.170;6.140;2023-08-31T04:04:27;4.32;;;2.70;;
78416;SDS011;67715;46.170;6.140;2023-08-31T04:06:53;3.97;;;2.63;;
78416;SDS011;67715;46.170;6.140;2023-08-31T04:09:18;4.03;;;2.60;;
78416;SDS011;67715;46.170;6.140;2023-08-31T04:11:44;3.78;;;2.55;;
78416;SDS011;67715;46.170;6.140;2023-08-31T04:14:09;4.18;;;3.03;;
78416;SDS011;67715;46.170;6.140;2023-08-31T04:16:34;5.37;;;3.53;;
78416;SDS011;67715;46.170;6.140;2023-08-31T04:19:00;11.97;;;4.47;;
78416;SDS011;67715;46.170;6.140;2023-08-31T04:21:25;6.20;;;3.92;;
78416;SDS011;67715;46.170;6.140;2023-08-31T04:23:50;3.63;;;2.83;;
78416;SDS011;67715;46.170;6.140;2023-08-31T04:26:16;4.67;;;2.87;;
78416;SDS011;67715;46.170;6.140;2023-08-31T04:28:42;3.95;;;3.10;;
78416;SDS011;67715;46.170;6.140;2023-08-31T04:31:08;6.43;;;3.33;;
78416;SDS011;67715;46.170;6.140;2023-08-31T04:33:36;3.53;;;2.80;;
78416;SDS011;67715;46.170;6.140;2023-08-31T04:36:03;5.75;;;3.00;;
78416;SDS011;67715;46.170;6.140;2023-08-31T04:38:29;5.55;;;3.50;;
78416;SDS011;67715;46.170;6.140;2023-08-31T04:40:57;4.72;;;2.88;;
78416;SDS011;67715;46.170;6.140;2023-08-31T04:43:24;5.15;;;3.20;;
78416;SDS011;67715;46.170;6.140;2023-08-31T04:45:51;3.87;;;3.17;;
78416;SDS011;67715;46.170;6.140;2023-08-31T04:48:16;4.15;;;2.90;;
78416;SDS011;67715;46.170;6.140;2023-08-31T04:50:42;4.28;;;2.80;;
78416;SDS011;67715;46.170;6.140;2023-08-31T04:53:07;5.00;;;2.97;;
78416;SDS011;67715;46.170;6.140;2023-08-31T04:55:32;4.37;;;3.03;;
78416;SDS011;67715;46.170;6.140;2023-08-31T04:57:58;4.60;;;2.87;;
78416;SDS011;67715;46.170;6.140;2023-08-31T05:00:23;4.10;;;3.00;;
78416;SDS011;67715;46.170;6.140;2023-08-31T05:02:48;4.53;;;3.30;;
78416;SDS011;67715;46.170;6.140;2023-08-31T05:05:14;5.57;;;3.43;;
78416;SDS011;67715;46.170;6.140;2023-08-31T05:07:39;4.30;;;3.05;;
78416;SDS011;67715;46.170;6.140;2023-08-31T05:10:05;5.17;;;2.93;;
78416;SDS011;67715;46.170;6.140;2023-08-31T05:12:31;7.07;;;2.70;;
78416;SDS011;67715;46.170;6.140;2023-08-31T05:14:56;4.67;;;2.73;;
78416;SDS011;67715;46.170;6.140;2023-08-31T05:17:21;4.27;;;2.80;;
78416;SDS011;67715;46.170;6.140;2023-08-31T05:19:47;7.07;;;2.77;;
78416;SDS011;67715;46.170;6.140;2023-08-31T05:22:12;4.40;;;2.33;;
78416;SDS011;67715;46.170;6.140;2023-08-31T05:24:38;3.70;;;2.30;;
78416;SDS011;67715;46.170;6.140;2023-08-31T05:27:03;3.67;;;2.50;;
78416;SDS011;67715;46.170;6.140;2023-08-31T05:29:29;3.88;;;2.38;;
78416;SDS011;67715;46.170;6.140;2023-08-31T05:31:54;6.15;;;2.40;;
78416;SDS011;67715;46.170;6.140;2023-08-31T05:34:24;3.07;;;2.13;;
78416;SDS011;67715;46.170;6.140;2023-08-31T05:36:49;3.45;;;2.40;;
78416;SDS011;67715;46.170;6.140;2023-08-31T05:39:15;6.40;;;2.87;;
78416;SDS011;67715;46.170;6.140;2023-08-31T05:41:42;3.10;;;2.35;;
78416;SDS011;67715;46.170;6.140;2023-08-31T05:44:08;3.28;;;2.30;;
78416;SDS011;67715;46.170;6.140;2023-08-31T05:46:34;4.40;;;2.40;;
78416;SDS011;67715;46.170;6.140;2023-08-31T05:48:59;4.83;;;3.07;;
78416;SDS011;67715;46.170;6.140;2023-08-31T05:51:25;6.60;;;3.20;;
78416;SDS011;67715;46.170;6.140;2023-08-31T05:53:50;7.90;;;2.63;;
78416;SDS011;67715;46.170;6.140;2023-08-31T05:56:15;2.87;;;1.90;;
78416;SDS011;67715;46.170;6.140;2023-08-31T05:58:41;4.97;;;2.23;;
78416;SDS011;67715;46.170;6.140;2023-08-31T06:01:06;6.83;;;2.30;;
78416;SDS011;67715;46.170;6.140;2023-08-31T06:03:32;4.68;;;2.30;;
78416;SDS011;67715;46.170;6.140;2023-08-31T06:05:57;5.43;;;3.53;;
78416;SDS011;67715;46.170;6.140;2023-08-31T06:08:23;5.82;;;2.45;;
78416;SDS011;67715;46.170;6.140;2023-08-31T06:10:49;3.28;;;2.22;;
78416;SDS011;67715;46.170;6.140;2023-08-31T06:13:15;4.57;;;2.30;;
78416;SDS011;67715;46.170;6.140;2023-08-31T06:15:40;4.53;;;2.50;;
78416;SDS011;67715;46.170;6.140;2023-08-31T06:18:06;4.37;;;2.53;;
78416;SDS011;67715;46.170;6.140;2023-08-31T06:20:31;5.05;;;2.25;;
78416;SDS011;67715;46.170;6.140;2023-08-31T06:22:57;10.15;;;2.97;;
78416;SDS011;67715;46.170;6.140;2023-08-31T06:25:22;5.70;;;2.85;;
78416;SDS011;67715;46.170;6.140;2023-08-31T06:27:48;6.20;;;3.10;;
78416;SDS011;67715;46.170;6.140;2023-08-31T06:30:13;4.32;;;2.40;;
78416;SDS011;67715;46.170;6.140;2023-08-31T06:32:45;3.42;;;2.13;;
78416;SDS011;67715;46.170;6.140;2023-08-31T06:35:11;8.10;;;2.38;;
78416;SDS011;67715;46.170;6.140;2023-08-31T06:37:38;3.28;;;2.08;;
78416;SDS011;67715;46.170;6.140;2023-08-31T06:40:05;5.10;;;1.90;;
78416;SDS011;67715;46.170;6.140;2023-08-31T06:42:31;7.68;;;2.63;;
78416;SDS011;67715;46.170;6.140;2023-08-31T06:44:56;4.43;;;2.83;;
78416;SDS011;67715;46.170;6.140;2023-08-31T06:47:22;6.50;;;2.72;;
78416;SDS011;67715;46.170;6.140;2023-08-31T06:49:47;5.22;;;2.05;;
78416;SDS011;67715;46.170;6.140;2023-08-31T06:52:13;4.77;;;2.47;;
78416;SDS011;67715;46.170;6.140;2023-08-31T06:54:38;2.50;;;1.90;;
78416;SDS011;67715;46.170;6.140;2023-08-31T06:57:03;4.23;;;1.80;;
78416;SDS011;67715;46.170;6.140;2023-08-31T06:59:29;6.28;;;2.13;;
78416;SDS011;67715;46.170;6.140;2023-08-31T07:01:54;3.07;;;2.00;;
78416;SDS011;67715;46.170;6.140;2023-08-31T07:04:19;3.78;;;2.08;;
78416;SDS011;67715;46.170;6.140;2023-08-31T07:06:45;6.53;;;1.93;;
78416;SDS011;67715;46.170;6.140;2023-08-31T07:09:10;3.97;;;1.80;;
78416;SDS011;67715;46.170;6.140;2023-08-31T07:11:35;5.80;;;2.00;;
78416;SDS011;67715;46.170;6.140;2023-08-31T07:14:01;5.63;;;2.17;;
78416;SDS011;67715;46.170;6.140;2023-08-31T07:16:26;3.55;;;1.80;;
78416;SDS011;67715;46.170;6.140;2023-08-31T07:18:52;3.60;;;1.90;;
78416;SDS011;67715;46.170;6.140;2023-08-31T07:21:17;5.38;;;2.75;;
78416;SDS011;67715;46.170;6.140;2023-08-31T07:23:42;3.33;;;1.40;;
78416;SDS011;67715;46.170;6.140;2023-08-31T07:26:08;2.65;;;1.63;;
78416;SDS011;67715;46.170;6.140;2023-08-31T07:28:34;2.78;;;1.95;;
78416;SDS011;67715;46.170;6.140;2023-08-31T07:31:03;3.25;;;1.50;;
78416;SDS011;67715;46.170;6.140;2023-08-31T07:33:29;3.25;;;1.75;;
78416;SDS011;67715;46.170;6.140;2023-08-31T07:35:59;2.85;;;1.88;;
78416;SDS011;67715;46.170;6.140;2023-08-31T07:38:25;3.03;;;1.40;;
78416;SDS011;67715;46.170;6.140;2023-08-31T07:40:51;3.95;;;1.50;;
78416;SDS011;67715;46.170;6.140;2023-08-31T07:43:17;3.95;;;1.60;;
78416;SDS011;67715;46.170;6.140;2023-08-31T07:45:42;2.37;;;1.30;;
78416;SDS011;67715;46.170;6.140;2023-08-31T07:48:08;2.20;;;1.40;;
78416;SDS011;67715;46.170;6.140;2023-08-31T07:50:33;2.60;;;1.60;;
78416;SDS011;67715;46.170;6.140;2023-08-31T07:52:59;3.03;;;1.70;;
78416;SDS011;67715;46.170;6.140;2023-08-31T07:55:24;2.83;;;1.80;;
78416;SDS011;67715;46.170;6.140;2023-08-31T07:57:50;4.97;;;1.70;;
78416;SDS011;67715;46.170;6.140;2023-08-31T08:00:15;2.20;;;1.37;;
78416;SDS011;67715;46.170;6.140;2023-08-31T08:02:41;2.53;;;1.42;;
78416;SDS011;67715;46.170;6.140;2023-08-31T08:05:06;3.63;;;1.50;;
78416;SDS011;67715;46.170;6.140;2023-08-31T08:07:32;1.92;;;1.25;;
78416;SDS011;67715;46.170;6.140;2023-08-31T08:09:57;2.30;;;1.20;;
78416;SDS011;67715;46.170;6.140;2023-08-31T08:12:22;2.92;;;1.73;;
78416;SDS011;67715;46.170;6.140;2023-08-31T08:14:48;4.38;;;1.42;;
78416;SDS011;67715;46.170;6.140;2023-08-31T08:17:13;3.10;;;1.65;;
78416;SDS011;67715;46.170;6.140;2023-08-31T08:19:39;2.43;;;1.50;;
78416;SDS011;67715;46.170;6.140;2023-08-31T08:22:04;2.55;;;1.35;;
78416;SDS011;67715;46.170;6.140;2023-08-31T08:24:29;8.77;;;1.40;;
78416;SDS011;67715;46.170;6.140;2023-08-31T08:26:55;4.00;;;1.63;;
78416;SDS011;67715;46.170;6.140;2023-08-31T08:29:20;2.70;;;1.30;;
78416;SDS011;67715;46.170;6.140;2023-08-31T08:31:45;3.13;;;1.50;;
78416;SDS011;67715;46.170;6.140;2023-08-31T08:34:11;3.92;;;2.28;;
78416;SDS011;67715;46.170;6.140;2023-08-31T08:36:36;2.63;;;1.30;;
78416;SDS011;67715;46.170;6.140;2023-08-31T08:39:01;2.83;;;1.37;;
78416;SDS011;67715;46.170;6.140;2023-08-31T08:41:27;2.93;;;1.33;;
78416;SDS011;67715;46.170;6.140;2023-08-31T08:43:53;3.92;;;1.42;;
78416;SDS011;67715;46.170;6.140;2023-08-31T08:46:21;2.60;;;1.50;;
78416;SDS011;67715;46.170;6.140;2023-08-31T08:48:47;3.25;;;1.30;;
78416;SDS011;67715;46.170;6.140;2023-08-31T08:51:13;2.78;;;1.52;;
78416;SDS011;67715;46.170;6.140;2023-08-31T08:53:40;2.92;;;1.50;;
78416;SDS011;67715;46.170;6.140;2023-08-31T08:56:07;5.43;;;2.00;;
78416;SDS011;67715;46.170;6.140;2023-08-31T08:58:33;4.23;;;1.60;;
78416;SDS011;67715;46.170;6.140;2023-08-31T09:00:59;3.45;;;1.23;;
78416;SDS011;67715;46.170;6.140;2023-08-31T09:03:24;3.07;;;1.57;;
78416;SDS011;67715;46.170;6.140;2023-08-31T09:05:50;4.00;;;1.30;;
78416;SDS011;67715;46.170;6.140;2023-08-31T09:08:17;3.67;;;1.70;;
78416;SDS011;67715;46.170;6.140;2023-08-31T09:10:42;3.78;;;1.45;;
78416;SDS011;67715;46.170;6.140;2023-08-31T09:13:09;2.30;;;1.25;;
78416;SDS011;67715;46.170;6.140;2023-08-31T09:20:52;1.88;;;1.20;;
78416;SDS011;67715;46.170;6.140;2023-08-31T09:23:18;2.33;;;1.50;;
78416;SDS011;67715;46.170;6.140;2023-08-31T09:28:19;2.00;;;1.42;;
78416;SDS011;67715;46.170;6.140;2023-08-31T09:30:46;3.95;;;1.45;;
78416;SDS011;67715;46.170;6.140;2023-08-31T09:33:13;3.60;;;1.40;;
78416;SDS011;67715;46.170;6.140;2023-08-31T09:35:45;2.38;;;1.35;;
78416;SDS011;67715;46.170;6.140;2023-08-31T09:38:19;2.58;;;1.38;;
78416;SDS011;67715;46.170;6.140;2023-08-31T09:40:44;2.80;;;1.48;;
78416;SDS011;67715;46.170;6.140;2023-08-31T09:43:10;5.13;;;1.50;;
78416;SDS011;67715;46.170;6.140;2023-08-31T09:45:35;2.72;;;1.30;;
78416;SDS011;67715;46.170;6.140;2023-08-31T09:48:02;2.05;;;1.30;;
78416;SDS011;67715;46.170;6.140;2023-08-31T09:50:29;2.10;;;1.20;;
78416;SDS011;67715;46.170;6.140;2023-08-31T09:52:56;1.70;;;1.15;;
78416;SDS011;67715;46.170;6.140;2023-08-31T09:55:25;2.40;;;1.40;;
78416;SDS011;67715;46.170;6.140;2023-08-31T09:57:53;3.88;;;1.70;;
78416;SDS011;67715;46.170;6.140;2023-08-31T10:00:21;3.28;;;1.52;;
78416;SDS011;67715;46.170;6.140;2023-08-31T10:02:47;2.83;;;1.40;;
78416;SDS011;67715;46.170;6.140;2023-08-31T10:05:14;3.00;;;1.60;;
78416;SDS011;67715;46.170;6.140;2023-08-31T10:07:40;3.05;;;1.40;;
78416;SDS011;67715;46.170;6.140;2023-08-31T10:10:05;1.77;;;1.40;;
78416;SDS011;67715;46.170;6.140;2023-08-31T10:12:31;1.95;;;1.35;;
78416;SDS011;67715;46.170;6.140;2023-08-31T10:14:57;2.45;;;1.50;;
78416;SDS011;67715;46.170;6.140;2023-08-31T10:17:23;2.35;;;1.48;;
78416;SDS011;67715;46.170;6.140;2023-08-31T10:19:50;2.58;;;1.38;;
78416;SDS011;67715;46.170;6.140;2023-08-31T10:22:16;2.22;;;1.15;;
78416;SDS011;67715;46.170;6.140;2023-08-31T10:25:00;2.47;;;1.25;;
78416;SDS011;67715;46.170;6.140;2023-08-31T10:27:28;5.03;;;1.50;;
78416;SDS011;67715;46.170;6.140;2023-08-31T10:30:12;5.63;;;1.67;;
78416;SDS011;67715;46.170;6.140;2023-08-31T10:32:38;2.58;;;1.50;;
78416;SDS011;67715;46.170;6.140;2023-08-31T10:35:04;2.77;;;1.53;;
78416;SDS011;67715;46.170;6.140;2023-08-31T10:37:30;2.97;;;1.55;;
78416;SDS011;67715;46.170;6.140;2023-08-31T10:40:09;3.40;;;1.50;;
78416;SDS011;67715;46.170;6.140;2023-08-31T10:42:43;5.68;;;1.88;;
78416;SDS011;67715;46.170;6.140;2023-08-31T10:45:12;1.73;;;1.23;;
78416;SDS011;67715;46.170;6.140;2023-08-31T10:47:39;3.53;;;1.65;;
78416;SDS011;67715;46.170;6.140;2023-08-31T10:50:21;2.97;;;1.65;;
78416;SDS011;67715;46.170;6.140;2023-08-31T10:52:47;5.32;;;1.40;;
78416;SDS011;67715;46.170;6.140;2023-08-31T10:55:13;2.03;;;1.30;;
78416;SDS011;67715;46.170;6.140;2023-08-31T10:57:39;2.20;;;1.40;;
78416;SDS011;67715;46.170;6.140;2023-08-31T11:00:06;2.38;;;1.38;;
78416;SDS011;67715;46.170;6.140;2023-08-31T11:02:42;2.35;;;1.40;;
78416;SDS011;67715;46.170;6.140;2023-08-31T11:07:38;3.35;;;1.60;;
78416;SDS011;67715;46.170;6.140;2023-08-31T11:10:15;2.80;;;1.50;;
78416;SDS011;67715;46.170;6.140;2023-08-31T11:12:43;3.95;;;1.80;;
78416;SDS011;67715;46.170;6.140;2023-08-31T11:15:13;1.85;;;1.33;;
78416;SDS011;67715;46.170;6.140;2023-08-31T11:17:40;2.35;;;1.48;;
78416;SDS011;67715;46.170;6.140;2023-08-31T11:20:07;2.88;;;1.35;;
78416;SDS011;67715;46.170;6.140;2023-08-31T11:22:34;2.33;;;1.48;;
78416;SDS011;67715;46.170;6.140;2023-08-31T11:24:59;2.55;;;1.25;;
78416;SDS011;67715;46.170;6.140;2023-08-31T11:27:25;1.70;;;1.10;;
78416;SDS011;67715;46.170;6.140;2023-08-31T11:29:50;3.53;;;1.20;;
78416;SDS011;67715;46.170;6.140;2023-08-31T11:32:15;3.30;;;1.30;;
78416;SDS011;67715;46.170;6.140;2023-08-31T11:34:41;4.53;;;1.43;;
78416;SDS011;67715;46.170;6.140;2023-08-31T11:37:07;3.05;;;1.40;;
78416;SDS011;67715;46.170;6.140;2023-08-31T11:39:33;3.78;;;1.30;;
78416;SDS011;67715;46.170;6.140;2023-08-31T11:41:59;2.05;;;1.30;;
78416;SDS011;67715;46.170;6.140;2023-08-31T11:44:24;3.15;;;1.27;;
78416;SDS011;67715;46.170;6.140;2023-08-31T11:46:50;2.35;;;1.40;;
78416;SDS011;67715;46.170;6.140;2023-08-31T11:49:16;6.95;;;1.95;;
78416;SDS011;67715;46.170;6.140;2023-08-31T11:51:45;4.20;;;1.73;;
78416;SDS011;67715;46.170;6.140;2023-08-31T11:54:12;2.22;;;1.50;;
78416;SDS011;67715;46.170;6.140;2023-08-31T11:56:44;2.53;;;1.60;;
78416;SDS011;67715;46.170;6.140;2023-08-31T11:59:15;3.67;;;1.45;;
78416;SDS011;67715;46.170;6.140;2023-08-31T12:01:45;2.72;;;1.60;;
78416;SDS011;67715;46.170;6.140;2023-08-31T12:04:13;4.38;;;1.40;;
78416;SDS011;67715;46.170;6.140;2023-08-31T12:06:39;3.67;;;1.52;;
78416;SDS011;67715;46.170;6.140;2023-08-31T12:09:06;1.98;;;1.30;;
78416;SDS011;67715;46.170;6.140;2023-08-31T12:11:34;1.48;;;1.10;;
78416;SDS011;67715;46.170;6.140;2023-08-31T12:14:01;2.42;;;1.10;;
78416;SDS011;67715;46.170;6.140;2023-08-31T12:16:33;2.38;;;1.20;;
78416;SDS011;67715;46.170;6.140;2023-08-31T12:19:01;4.65;;;1.50;;
78416;SDS011;67715;46.170;6.140;2023-08-31T12:21:30;4.28;;;2.08;;
78416;SDS011;67715;46.170;6.140;2023-08-31T12:23:59;2.00;;;1.50;;
78416;SDS011;67715;46.170;6.140;2023-08-31T12:26:25;3.67;;;1.30;;
78416;SDS011;67715;46.170;6.140;2023-08-31T12:28:50;3.45;;;1.40;;
78416;SDS011;67715;46.170;6.140;2023-08-31T12:31:16;1.80;;;1.08;;
78416;SDS011;67715;46.170;6.140;2023-08-31T12:33:41;3.03;;;1.37;;
78416;SDS011;67715;46.170;6.140;2023-08-31T12:36:06;3.30;;;1.20;;
78416;SDS011;67715;46.170;6.140;2023-08-31T12:38:32;3.05;;;1.27;;
78416;SDS011;67715;46.170;6.140;2023-08-31T12:40:58;2.10;;;1.40;;
78416;SDS011;67715;46.170;6.140;2023-08-31T12:43:23;3.53;;;1.77;;
78416;SDS011;67715;46.170;6.140;2023-08-31T12:45:49;2.17;;;1.40;;
78416;SDS011;67715;46.170;6.140;2023-08-31T12:48:14;2.33;;;1.47;;
78416;SDS011;67715;46.170;6.140;2023-08-31T12:50:39;2.80;;;1.37;;
78416;SDS011;67715;46.170;6.140;2023-08-31T12:53:05;2.23;;;1.13;;
78416;SDS011;67715;46.170;6.140;2023-08-31T12:55:30;2.37;;;1.20;;
78416;SDS011;67715;46.170;6.140;2023-08-31T12:57:55;2.40;;;1.43;;
78416;SDS011;67715;46.170;6.140;2023-08-31T13:00:21;3.55;;;1.58;;
78416;SDS011;67715;46.170;6.140;2023-08-31T13:02:46;2.20;;;1.20;;
78416;SDS011;67715;46.170;6.140;2023-08-31T13:05:12;1.80;;;1.00;;
78416;SDS011;67715;46.170;6.140;2023-08-31T13:07:37;2.73;;;1.10;;
78416;SDS011;67715;46.170;6.140;2023-08-31T13:10:03;2.17;;;1.65;;
78416;SDS011;67715;46.170;6.140;2023-08-31T13:12:30;2.00;;;1.30;;
78416;SDS011;67715;46.170;6.140;2023-08-31T13:14:56;2.83;;;1.40;;
78416;SDS011;67715;46.170;6.140;2023-08-31T13:17:22;3.50;;;1.58;;
78416;SDS011;67715;46.170;6.140;2023-08-31T13:19:51;2.60;;;1.38;;
78416;SDS011;67715;46.170;6.140;2023-08-31T13:22:17;2.42;;;1.38;;
78416;SDS011;67715;46.170;6.140;2023-08-31T13:24:42;2.60;;;1.43;;
78416;SDS011;67715;46.170;6.140;2023-08-31T13:27:07;2.27;;;1.30;;
78416;SDS011;67715;46.170;6.140;2023-08-31T13:29:33;2.37;;;1.30;;
78416;SDS011;67715;46.170;6.140;2023-08-31T13:31:58;2.33;;;1.30;;
78416;SDS011;67715;46.170;6.140;2023-08-31T13:34:23;1.93;;;1.30;;
78416;SDS011;67715;46.170;6.140;2023-08-31T13:36:49;2.90;;;1.60;;
78416;SDS011;67715;46.170;6.140;2023-08-31T13:39:14;4.90;;;1.33;;
78416;SDS011;67715;46.170;6.140;2023-08-31T13:41:39;4.53;;;1.43;;
78416;SDS011;67715;46.170;6.140;2023-08-31T13:44:05;2.95;;;1.45;;
78416;SDS011;67715;46.170;6.140;2023-08-31T13:46:31;2.53;;;1.50;;
78416;SDS011;67715;46.170;6.140;2023-08-31T13:48:56;2.58;;;1.52;;
78416;SDS011;67715;46.170;6.140;2023-08-31T13:51:21;2.75;;;1.25;;
78416;SDS011;67715;46.170;6.140;2023-08-31T13:53:47;2.00;;;1.20;;
78416;SDS011;67715;46.170;6.140;2023-08-31T13:56:12;2.65;;;1.58;;
78416;SDS011;67715;46.170;6.140;2023-08-31T13:58:38;1.98;;;1.45;;
78416;SDS011;67715;46.170;6.140;2023-08-31T14:01:03;4.13;;;1.20;;
78416;SDS011;67715;46.170;6.140;2023-08-31T14:03:28;3.75;;;1.58;;
78416;SDS011;67715;46.170;6.140;2023-08-31T14:05:54;5.00;;;1.60;;
78416;SDS011;67715;46.170;6.140;2023-08-31T14:08:19;3.80;;;1.20;;
78416;SDS011;67715;46.170;6.140;2023-08-31T14:10:45;3.00;;;1.60;;
78416;SDS011;67715;46.170;6.140;2023-08-31T14:13:10;3.38;;;1.35;;
78416;SDS011;67715;46.170;6.140;2023-08-31T14:15:36;2.75;;;1.45;;
78416;SDS011;67715;46.170;6.140;2023-08-31T14:18:01;5.88;;;1.70;;
78416;SDS011;67715;46.170;6.140;2023-08-31T14:20:28;12.88;;;2.55;;
78416;SDS011;67715;46.170;6.140;2023-08-31T14:22:54;3.92;;;1.40;;
78416;SDS011;67715;46.170;6.140;2023-08-31T14:25:19;8.23;;;1.60;;
78416;SDS011;67715;46.170;6.140;2023-08-31T14:27:46;2.90;;;1.50;;
78416;SDS011;67715;46.170;6.140;2023-08-31T14:30:12;6.47;;;1.60;;
78416;SDS011;67715;46.170;6.140;2023-08-31T14:32:37;4.70;;;1.83;;
78416;SDS011;67715;46.170;6.140;2023-08-31T14:35:02;2.77;;;1.33;;
78416;SDS011;67715;46.170;6.140;2023-08-31T14:37:29;3.00;;;1.48;;
78416;SDS011;67715;46.170;6.140;2023-08-31T14:39:54;3.57;;;1.50;;
78416;SDS011;67715;46.170;6.140;2023-08-31T14:42:20;3.03;;;1.50;;
78416;SDS011;67715;46.170;6.140;2023-08-31T14:44:46;4.40;;;1.60;;
78416;SDS011;67715;46.170;6.140;2023-08-31T14:47:12;1.75;;;1.15;;
78416;SDS011;67715;46.170;6.140;2023-08-31T14:49:38;3.20;;;1.10;;
78416;SDS011;67715;46.170;6.140;2023-08-31T14:52:04;2.88;;;1.40;;
78416;SDS011;67715;46.170;6.140;2023-08-31T14:54:31;3.05;;;1.58;;
78416;SDS011;67715;46.170;6.140;2023-08-31T14:56:57;2.83;;;1.20;;
78416;SDS011;67715;46.170;6.140;2023-08-31T14:59:22;2.90;;;1.60;;
78416;SDS011;67715;46.170;6.140;2023-08-31T15:01:49;3.05;;;1.52;;